Terminal Aerodrome Forecast
Issued by NWS

Home | Current Version | Previous Version | Graphics & Text | Print | Product List | Glossary On
Versions: 1 2 3 4 5 6 7 8 9 10 11 12 13 14 15 16
000
FTUS43 KMPX 311720
TAFRWF
TAF
KRWF 311720Z 3118/0118 30007G15KT P6SM SKC
     FM010000 29005KT P6SM SKC
     FM011200 20008KT P6SM SCT100=

USA.gov is the U.S. government's official web portal to all federal, state and local government web resources and services.